sensor_id;sensor_type;location;lat;lon;timestamp;P1;durP1;ratioP1;P2;durP2;ratioP2
76758;SDS011;65701;45.588;5.186;2022-12-24T08:09:07;3.00;;;3.00;;
76758;SDS011;65701;45.588;5.186;2022-12-24T08:11:33;2.75;;;2.75;;
76758;SDS011;65701;45.588;5.186;2022-12-24T08:13:58;3.75;;;3.25;;
76758;SDS011;65701;45.588;5.186;2022-12-24T08:16:24;2.25;;;2.25;;
76758;SDS011;65701;45.588;5.186;2022-12-24T08:18:49;9.00;;;6.00;;
76758;SDS011;65701;45.588;5.186;2022-12-24T08:21:15;7.00;;;4.50;;
76758;SDS011;65701;45.588;5.186;2022-12-24T08:23:40;3.50;;;3.50;;
76758;SDS011;65701;45.588;5.186;2022-12-24T08:26:06;4.00;;;3.00;;
76758;SDS011;65701;45.588;5.186;2022-12-24T08:28:33;6.25;;;5.00;;
76758;SDS011;65701;45.588;5.186;2022-12-24T08:30:59;6.75;;;5.50;;
76758;SDS011;65701;45.588;5.186;2022-12-24T08:33:24;9.25;;;5.75;;
76758;SDS011;65701;45.588;5.186;2022-12-24T08:35:51;11.50;;;11.00;;
76758;SDS011;65701;45.588;5.186;2022-12-24T08:38:18;10.25;;;9.00;;
76758;SDS011;65701;45.588;5.186;2022-12-24T08:40:44;38.75;;;31.50;;
76758;SDS011;65701;45.588;5.186;2022-12-24T08:43:13;31.50;;;25.50;;
76758;SDS011;65701;45.588;5.186;2022-12-24T08:45:38;16.50;;;13.00;;
76758;SDS011;65701;45.588;5.186;2022-12-24T08:48:04;5.75;;;5.75;;
76758;SDS011;65701;45.588;5.186;2022-12-24T08:50:31;6.25;;;5.75;;
76758;SDS011;65701;45.588;5.186;2022-12-24T08:52:57;7.75;;;6.50;;
76758;SDS011;65701;45.588;5.186;2022-12-24T08:55:23;5.50;;;5.50;;
76758;SDS011;65701;45.588;5.186;2022-12-24T08:57:48;8.25;;;5.25;;
76758;SDS011;65701;45.588;5.186;2022-12-24T09:00:14;4.25;;;4.25;;
76758;SDS011;65701;45.588;5.186;2022-12-24T09:02:39;8.50;;;5.75;;
76758;SDS011;65701;45.588;5.186;2022-12-24T09:05:05;9.00;;;6.00;;
76758;SDS011;65701;45.588;5.186;2022-12-24T09:07:31;6.75;;;6.00;;
76758;SDS011;65701;45.588;5.186;2022-12-24T09:09:56;7.75;;;6.75;;
76758;SDS011;65701;45.588;5.186;2022-12-24T09:12:22;6.00;;;6.00;;
76758;SDS011;65701;45.588;5.186;2022-12-24T09:14:49;5.75;;;5.75;;
76758;SDS011;65701;45.588;5.186;2022-12-24T09:17:15;9.00;;;7.00;;
76758;SDS011;65701;45.588;5.186;2022-12-24T09:19:41;9.00;;;6.75;;
76758;SDS011;65701;45.588;5.186;2022-12-24T09:22:06;7.50;;;7.50;;
76758;SDS011;65701;45.588;5.186;2022-12-24T09:24:32;13.75;;;8.75;;
76758;SDS011;65701;45.588;5.186;2022-12-24T09:26:59;10.75;;;9.25;;
76758;SDS011;65701;45.588;5.186;2022-12-24T09:29:26;7.25;;;7.25;;
76758;SDS011;65701;45.588;5.186;2022-12-24T09:31:52;11.50;;;11.00;;
76758;SDS011;65701;45.588;5.186;2022-12-24T09:34:19;7.75;;;7.50;;
76758;SDS011;65701;45.588;5.186;2022-12-24T09:36:45;6.25;;;6.25;;
76758;SDS011;65701;45.588;5.186;2022-12-24T09:39:11;6.50;;;6.50;;
76758;SDS011;65701;45.588;5.186;2022-12-24T09:44:28;9.00;;;7.00;;
76758;SDS011;65701;45.588;5.186;2022-12-24T09:49:55;6.25;;;6.00;;
76758;SDS011;65701;45.588;5.186;2022-12-24T09:52:27;8.25;;;8.25;;
76758;SDS011;65701;45.588;5.186;2022-12-24T09:55:00;6.50;;;6.50;;
76758;SDS011;65701;45.588;5.186;2022-12-24T09:57:33;6.75;;;5.00;;
76758;SDS011;65701;45.588;5.186;2022-12-24T10:00:02;6.50;;;6.50;;
76758;SDS011;65701;45.588;5.186;2022-12-24T10:02:28;4.25;;;4.25;;
76758;SDS011;65701;45.588;5.186;2022-12-24T10:04:56;7.00;;;6.75;;
76758;SDS011;65701;45.588;5.186;2022-12-24T10:15:57;6.25;;;5.50;;
76758;SDS011;65701;45.588;5.186;2022-12-24T10:21:15;5.00;;;4.00;;
76758;SDS011;65701;45.588;5.186;2022-12-24T10:24:17;5.00;;;5.00;;
76758;SDS011;65701;45.588;5.186;2022-12-24T10:26:56;16.00;;;14.25;;
76758;SDS011;65701;45.588;5.186;2022-12-24T10:29:30;9.00;;;9.00;;
76758;SDS011;65701;45.588;5.186;2022-12-24T10:34:43;8.00;;;7.50;;
76758;SDS011;65701;45.588;5.186;2022-12-24T10:37:15;6.00;;;6.00;;
76758;SDS011;65701;45.588;5.186;2022-12-24T10:39:46;7.75;;;6.50;;
76758;SDS011;65701;45.588;5.186;2022-12-24T10:42:13;5.00;;;5.00;;
76758;SDS011;65701;45.588;5.186;2022-12-24T10:44:41;7.25;;;7.25;;
76758;SDS011;65701;45.588;5.186;2022-12-24T10:47:10;9.00;;;7.50;;
76758;SDS011;65701;45.588;5.186;2022-12-24T10:49:44;7.00;;;7.00;;
76758;SDS011;65701;45.588;5.186;2022-12-24T10:52:18;11.00;;;9.75;;
76758;SDS011;65701;45.588;5.186;2022-12-24T10:57:30;8.75;;;8.75;;
76758;SDS011;65701;45.588;5.186;2022-12-24T10:59:56;9.25;;;9.25;;
76758;SDS011;65701;45.588;5.186;2022-12-24T11:05:05;9.00;;;8.50;;
76758;SDS011;65701;45.588;5.186;2022-12-24T11:08:00;10.00;;;8.50;;
76758;SDS011;65701;45.588;5.186;2022-12-24T11:10:39;8.50;;;6.50;;
76758;SDS011;65701;45.588;5.186;2022-12-24T11:13:21;8.50;;;8.50;;
76758;SDS011;65701;45.588;5.186;2022-12-24T11:16:07;4.25;;;4.25;;
76758;SDS011;65701;45.588;5.186;2022-12-24T11:18:47;6.00;;;5.25;;
76758;SDS011;65701;45.588;5.186;2022-12-24T11:21:35;9.00;;;9.00;;
76758;SDS011;65701;45.588;5.186;2022-12-24T11:24:07;6.25;;;6.25;;
76758;SDS011;65701;45.588;5.186;2022-12-24T11:26:50;8.50;;;7.00;;
76758;SDS011;65701;45.588;5.186;2022-12-24T11:31:48;5.25;;;5.25;;
76758;SDS011;65701;45.588;5.186;2022-12-24T11:36:42;6.75;;;6.75;;
76758;SDS011;65701;45.588;5.186;2022-12-24T11:39:09;7.75;;;7.75;;
76758;SDS011;65701;45.588;5.186;2022-12-24T11:41:43;7.25;;;7.25;;
76758;SDS011;65701;45.588;5.186;2022-12-24T11:44:09;5.75;;;5.00;;
76758;SDS011;65701;45.588;5.186;2022-12-24T11:49:13;9.50;;;9.50;;
76758;SDS011;65701;45.588;5.186;2022-12-24T11:52:27;4.25;;;4.25;;
76758;SDS011;65701;45.588;5.186;2022-12-24T11:54:34;3.00;;;3.00;;
76758;SDS011;65701;45.588;5.186;2022-12-24T11:57:10;7.25;;;5.25;;
76758;SDS011;65701;45.588;5.186;2022-12-24T11:59:42;8.00;;;7.00;;
76758;SDS011;65701;45.588;5.186;2022-12-24T12:02:17;11.00;;;11.00;;
76758;SDS011;65701;45.588;5.186;2022-12-24T12:04:53;11.00;;;11.00;;
76758;SDS011;65701;45.588;5.186;2022-12-24T12:07:27;13.75;;;11.50;;
76758;SDS011;65701;45.588;5.186;2022-12-24T12:10:02;13.00;;;11.50;;
76758;SDS011;65701;45.588;5.186;2022-12-24T12:12:33;12.25;;;10.00;;
76758;SDS011;65701;45.588;5.186;2022-12-24T12:17:43;7.00;;;7.00;;
76758;SDS011;65701;45.588;5.186;2022-12-24T12:20:30;5.00;;;4.75;;
76758;SDS011;65701;45.588;5.186;2022-12-24T12:23:15;8.25;;;8.25;;
76758;SDS011;65701;45.588;5.186;2022-12-24T12:25:54;9.75;;;9.00;;
76758;SDS011;65701;45.588;5.186;2022-12-24T12:28:29;12.00;;;12.00;;
76758;SDS011;65701;45.588;5.186;2022-12-24T12:31:12;11.25;;;11.25;;
76758;SDS011;65701;45.588;5.186;2022-12-24T12:34:14;9.50;;;9.50;;
76758;SDS011;65701;45.588;5.186;2022-12-24T12:36:43;11.00;;;9.25;;
76758;SDS011;65701;45.588;5.186;2022-12-24T12:39:12;9.25;;;9.25;;
76758;SDS011;65701;45.588;5.186;2022-12-24T12:42:28;12.50;;;9.00;;
76758;SDS011;65701;45.588;5.186;2022-12-24T12:58:40;8.50;;;7.25;;
76758;SDS011;65701;45.588;5.186;2022-12-24T13:06:50;11.00;;;10.75;;
76758;SDS011;65701;45.588;5.186;2022-12-24T13:09:45;13.50;;;10.25;;
76758;SDS011;65701;45.588;5.186;2022-12-24T13:20:32;9.00;;;8.00;;
76758;SDS011;65701;45.588;5.186;2022-12-24T13:23:07;11.25;;;11.25;;
76758;SDS011;65701;45.588;5.186;2022-12-24T13:25:37;11.50;;;9.50;;
76758;SDS011;65701;45.588;5.186;2022-12-24T13:30:46;11.25;;;11.00;;
76758;SDS011;65701;45.588;5.186;2022-12-24T13:33:48;12.00;;;12.00;;
76758;SDS011;65701;45.588;5.186;2022-12-24T13:36:06;12.00;;;10.50;;
76758;SDS011;65701;45.588;5.186;2022-12-24T13:38:49;10.00;;;10.00;;
76758;SDS011;65701;45.588;5.186;2022-12-24T13:41:37;13.00;;;11.50;;
76758;SDS011;65701;45.588;5.186;2022-12-24T13:44:08;10.75;;;9.75;;
76758;SDS011;65701;45.588;5.186;2022-12-24T13:49:37;12.00;;;9.25;;
76758;SDS011;65701;45.588;5.186;2022-12-24T13:52:06;13.00;;;11.25;;
76758;SDS011;65701;45.588;5.186;2022-12-24T13:54:40;11.00;;;11.00;;
76758;SDS011;65701;45.588;5.186;2022-12-24T13:59:52;10.00;;;9.00;;
76758;SDS011;65701;45.588;5.186;2022-12-24T14:02:25;10.00;;;9.50;;
76758;SDS011;65701;45.588;5.186;2022-12-24T14:04:56;12.00;;;10.75;;
76758;SDS011;65701;45.588;5.186;2022-12-24T14:07:25;10.00;;;10.00;;
76758;SDS011;65701;45.588;5.186;2022-12-24T14:09:51;9.75;;;9.75;;
76758;SDS011;65701;45.588;5.186;2022-12-24T14:16:04;12.75;;;10.75;;
76758;SDS011;65701;45.588;5.186;2022-12-24T14:18:17;10.75;;;9.75;;
76758;SDS011;65701;45.588;5.186;2022-12-24T14:20:47;9.00;;;9.00;;
76758;SDS011;65701;45.588;5.186;2022-12-24T14:24:02;10.00;;;10.00;;
76758;SDS011;65701;45.588;5.186;2022-12-24T14:26:07;9.00;;;7.00;;
76758;SDS011;65701;45.588;5.186;2022-12-24T14:28:47;9.00;;;9.00;;
76758;SDS011;65701;45.588;5.186;2022-12-24T14:31:19;9.00;;;8.75;;
76758;SDS011;65701;45.588;5.186;2022-12-24T14:33:45;7.75;;;7.75;;
76758;SDS011;65701;45.588;5.186;2022-12-24T14:36:11;10.00;;;8.50;;
76758;SDS011;65701;45.588;5.186;2022-12-24T14:38:42;2.00;;;2.00;;
76758;SDS011;65701;45.588;5.186;2022-12-24T14:41:21;9.50;;;7.25;;
76758;SDS011;65701;45.588;5.186;2022-12-24T14:46:37;8.00;;;8.00;;
76758;SDS011;65701;45.588;5.186;2022-12-24T14:54:38;8.75;;;6.00;;
76758;SDS011;65701;45.588;5.186;2022-12-24T14:59:41;8.75;;;7.50;;
76758;SDS011;65701;45.588;5.186;2022-12-24T15:05:15;7.25;;;7.25;;
76758;SDS011;65701;45.588;5.186;2022-12-24T15:08:31;11.75;;;9.00;;
76758;SDS011;65701;45.588;5.186;2022-12-24T15:10:40;8.00;;;8.00;;
76758;SDS011;65701;45.588;5.186;2022-12-24T15:16:37;10.25;;;9.25;;
76758;SDS011;65701;45.588;5.186;2022-12-24T15:22:00;8.75;;;8.25;;
76758;SDS011;65701;45.588;5.186;2022-12-24T15:24:35;8.25;;;8.00;;
76758;SDS011;65701;45.588;5.186;2022-12-24T15:27:21;14.25;;;12.50;;
76758;SDS011;65701;45.588;5.186;2022-12-24T15:29:53;10.00;;;10.00;;
76758;SDS011;65701;45.588;5.186;2022-12-24T15:32:21;12.75;;;12.75;;
76758;SDS011;65701;45.588;5.186;2022-12-24T15:34:47;20.25;;;19.50;;
76758;SDS011;65701;45.588;5.186;2022-12-24T15:37:21;21.50;;;20.25;;
76758;SDS011;65701;45.588;5.186;2022-12-24T15:42:22;18.25;;;16.50;;
76758;SDS011;65701;45.588;5.186;2022-12-24T15:47:30;12.00;;;11.00;;
76758;SDS011;65701;45.588;5.186;2022-12-24T15:50:24;12.25;;;12.25;;
76758;SDS011;65701;45.588;5.186;2022-12-24T15:53:01;12.25;;;12.00;;
76758;SDS011;65701;45.588;5.186;2022-12-24T15:55:39;12.00;;;12.00;;
76758;SDS011;65701;45.588;5.186;2022-12-24T16:00:59;12.75;;;12.75;;
76758;SDS011;65701;45.588;5.186;2022-12-24T16:03:38;12.75;;;11.50;;
76758;SDS011;65701;45.588;5.186;2022-12-24T16:06:08;13.50;;;11.25;;
76758;SDS011;65701;45.588;5.186;2022-12-24T16:08:39;13.25;;;11.50;;
76758;SDS011;65701;45.588;5.186;2022-12-24T16:16:15;10.25;;;9.50;;
76758;SDS011;65701;45.588;5.186;2022-12-24T16:18:51;10.00;;;10.00;;
76758;SDS011;65701;45.588;5.186;2022-12-24T16:21:22;11.25;;;10.25;;
76758;SDS011;65701;45.588;5.186;2022-12-24T16:23:51;12.00;;;11.50;;
76758;SDS011;65701;45.588;5.186;2022-12-24T16:26:18;14.25;;;12.00;;
76758;SDS011;65701;45.588;5.186;2022-12-24T16:28:44;10.25;;;9.25;;
76758;SDS011;65701;45.588;5.186;2022-12-24T16:31:27;10.00;;;10.00;;
76758;SDS011;65701;45.588;5.186;2022-12-24T16:33:56;16.50;;;14.25;;
76758;SDS011;65701;45.588;5.186;2022-12-24T16:36:23;17.00;;;15.50;;
76758;SDS011;65701;45.588;5.186;2022-12-24T16:38:48;17.75;;;15.75;;
76758;SDS011;65701;45.588;5.186;2022-12-24T16:41:32;14.75;;;14.75;;
76758;SDS011;65701;45.588;5.186;2022-12-24T16:44:18;15.25;;;15.00;;
76758;SDS011;65701;45.588;5.186;2022-12-24T16:46:43;14.25;;;13.50;;
76758;SDS011;65701;45.588;5.186;2022-12-24T16:49:16;17.75;;;17.00;;
76758;SDS011;65701;45.588;5.186;2022-12-24T16:51:45;24.25;;;21.25;;
76758;SDS011;65701;45.588;5.186;2022-12-24T16:54:12;23.25;;;20.50;;
76758;SDS011;65701;45.588;5.186;2022-12-24T16:56:41;21.50;;;19.00;;
76758;SDS011;65701;45.588;5.186;2022-12-24T16:59:12;22.50;;;22.00;;
76758;SDS011;65701;45.588;5.186;2022-12-24T17:01:42;20.25;;;18.50;;
76758;SDS011;65701;45.588;5.186;2022-12-24T17:04:08;20.00;;;20.00;;
76758;SDS011;65701;45.588;5.186;2022-12-24T17:06:33;23.75;;;21.50;;
76758;SDS011;65701;45.588;5.186;2022-12-24T17:08:59;20.50;;;18.50;;
76758;SDS011;65701;45.588;5.186;2022-12-24T17:11:28;25.00;;;20.25;;
76758;SDS011;65701;45.588;5.186;2022-12-24T17:13:53;20.25;;;19.25;;
76758;SDS011;65701;45.588;5.186;2022-12-24T17:16:19;19.75;;;18.25;;
76758;SDS011;65701;45.588;5.186;2022-12-24T17:18:44;22.50;;;18.25;;
76758;SDS011;65701;45.588;5.186;2022-12-24T17:21:10;20.25;;;17.75;;
76758;SDS011;65701;45.588;5.186;2022-12-24T17:23:38;24.75;;;22.50;;
76758;SDS011;65701;45.588;5.186;2022-12-24T17:26:05;17.00;;;17.00;;
76758;SDS011;65701;45.588;5.186;2022-12-24T17:28:31;19.75;;;18.25;;
76758;SDS011;65701;45.588;5.186;2022-12-24T17:30:56;26.75;;;24.25;;
76758;SDS011;65701;45.588;5.186;2022-12-24T17:33:23;24.00;;;18.25;;
76758;SDS011;65701;45.588;5.186;2022-12-24T17:35:49;25.50;;;19.75;;
76758;SDS011;65701;45.588;5.186;2022-12-24T17:38:16;19.50;;;18.00;;
76758;SDS011;65701;45.588;5.186;2022-12-24T17:40:42;20.00;;;18.00;;
76758;SDS011;65701;45.588;5.186;2022-12-24T17:43:07;20.00;;;18.75;;
76758;SDS011;65701;45.588;5.186;2022-12-24T17:45:33;19.75;;;18.75;;
76758;SDS011;65701;45.588;5.186;2022-12-24T17:47:58;17.75;;;17.25;;
76758;SDS011;65701;45.588;5.186;2022-12-24T17:50:24;23.50;;;18.25;;
76758;SDS011;65701;45.588;5.186;2022-12-24T17:52:49;24.75;;;22.00;;
76758;SDS011;65701;45.588;5.186;2022-12-24T17:55:14;18.75;;;18.25;;
76758;SDS011;65701;45.588;5.186;2022-12-24T17:57:40;23.50;;;20.50;;
76758;SDS011;65701;45.588;5.186;2022-12-24T18:00:06;36.75;;;27.50;;
76758;SDS011;65701;45.588;5.186;2022-12-24T18:02:32;28.00;;;26.25;;
76758;SDS011;65701;45.588;5.186;2022-12-24T18:04:57;27.75;;;25.00;;
76758;SDS011;65701;45.588;5.186;2022-12-24T18:07:23;29.00;;;25.50;;
76758;SDS011;65701;45.588;5.186;2022-12-24T18:09:49;26.75;;;25.75;;
76758;SDS011;65701;45.588;5.186;2022-12-24T18:12:15;24.00;;;22.50;;
76758;SDS011;65701;45.588;5.186;2022-12-24T18:14:41;19.00;;;19.00;;
76758;SDS011;65701;45.588;5.186;2022-12-24T18:17:07;27.00;;;24.75;;
76758;SDS011;65701;45.588;5.186;2022-12-24T18:19:33;23.50;;;20.75;;
76758;SDS011;65701;45.588;5.186;2022-12-24T18:21:58;26.50;;;23.25;;
76758;SDS011;65701;45.588;5.186;2022-12-24T18:24:24;32.75;;;27.50;;
76758;SDS011;65701;45.588;5.186;2022-12-24T18:26:49;36.00;;;33.50;;
76758;SDS011;65701;45.588;5.186;2022-12-24T18:29:15;37.00;;;31.00;;
76758;SDS011;65701;45.588;5.186;2022-12-24T18:31:41;41.50;;;35.00;;
76758;SDS011;65701;45.588;5.186;2022-12-24T18:34:07;44.00;;;36.25;;
76758;SDS011;65701;45.588;5.186;2022-12-24T18:36:36;38.00;;;33.50;;
76758;SDS011;65701;45.588;5.186;2022-12-24T18:39:02;38.50;;;34.75;;
76758;SDS011;65701;45.588;5.186;2022-12-24T18:41:28;39.25;;;33.50;;
76758;SDS011;65701;45.588;5.186;2022-12-24T18:43:55;46.75;;;36.00;;
76758;SDS011;65701;45.588;5.186;2022-12-24T18:46:25;43.00;;;35.00;;
76758;SDS011;65701;45.588;5.186;2022-12-24T18:48:55;35.75;;;33.00;;
76758;SDS011;65701;45.588;5.186;2022-12-24T18:51:22;38.00;;;31.50;;
76758;SDS011;65701;45.588;5.186;2022-12-24T18:53:51;36.75;;;33.75;;
76758;SDS011;65701;45.588;5.186;2022-12-24T18:56:21;38.25;;;33.25;;
76758;SDS011;65701;45.588;5.186;2022-12-24T18:58:50;38.00;;;32.50;;
76758;SDS011;65701;45.588;5.186;2022-12-24T19:01:21;32.00;;;31.50;;
76758;SDS011;65701;45.588;5.186;2022-12-24T19:03:49;31.00;;;28.75;;
76758;SDS011;65701;45.588;5.186;2022-12-24T19:06:15;32.00;;;25.25;;
76758;SDS011;65701;45.588;5.186;2022-12-24T19:08:41;23.50;;;22.00;;
76758;SDS011;65701;45.588;5.186;2022-12-24T19:11:07;29.00;;;21.75;;
76758;SDS011;65701;45.588;5.186;2022-12-24T19:13:33;20.25;;;19.00;;
76758;SDS011;65701;45.588;5.186;2022-12-24T19:15:59;19.50;;;16.75;;
76758;SDS011;65701;45.588;5.186;2022-12-24T19:18:27;20.00;;;19.75;;
76758;SDS011;65701;45.588;5.186;2022-12-24T19:20:53;25.00;;;24.00;;
76758;SDS011;65701;45.588;5.186;2022-12-24T19:23:18;30.75;;;28.75;;
76758;SDS011;65701;45.588;5.186;2022-12-24T19:25:44;34.00;;;29.00;;
76758;SDS011;65701;45.588;5.186;2022-12-24T19:28:09;31.25;;;26.50;;
76758;SDS011;65701;45.588;5.186;2022-12-24T19:30:39;18.75;;;17.25;;
76758;SDS011;65701;45.588;5.186;2022-12-24T19:33:07;29.25;;;22.00;;
76758;SDS011;65701;45.588;5.186;2022-12-24T19:35:33;27.25;;;22.25;;
76758;SDS011;65701;45.588;5.186;2022-12-24T19:37:58;26.00;;;18.75;;
76758;SDS011;65701;45.588;5.186;2022-12-24T19:40:24;25.50;;;23.00;;
76758;SDS011;65701;45.588;5.186;2022-12-24T19:42:50;24.75;;;19.00;;
76758;SDS011;65701;45.588;5.186;2022-12-24T19:45:17;19.75;;;18.50;;
76758;SDS011;65701;45.588;5.186;2022-12-24T19:47:43;21.00;;;18.25;;
76758;SDS011;65701;45.588;5.186;2022-12-24T19:50:09;14.75;;;14.25;;
76758;SDS011;65701;45.588;5.186;2022-12-24T19:52:34;19.25;;;15.75;;
76758;SDS011;65701;45.588;5.186;2022-12-24T19:55:00;15.75;;;14.25;;
76758;SDS011;65701;45.588;5.186;2022-12-24T19:57:25;21.50;;;18.75;;
76758;SDS011;65701;45.588;5.186;2022-12-24T19:59:51;17.75;;;16.00;;
76758;SDS011;65701;45.588;5.186;2022-12-24T20:02:17;17.25;;;15.50;;
76758;SDS011;65701;45.588;5.186;2022-12-24T20:04:42;16.25;;;14.00;;
76758;SDS011;65701;45.588;5.186;2022-12-24T20:07:08;14.00;;;13.25;;
76758;SDS011;65701;45.588;5.186;2022-12-24T20:09:33;13.75;;;11.75;;
76758;SDS011;65701;45.588;5.186;2022-12-24T20:11:59;21.00;;;18.00;;
76758;SDS011;65701;45.588;5.186;2022-12-24T20:14:25;21.25;;;16.75;;
76758;SDS011;65701;45.588;5.186;2022-12-24T20:16:52;19.75;;;17.75;;
76758;SDS011;65701;45.588;5.186;2022-12-24T20:19:17;25.75;;;23.75;;
76758;SDS011;65701;45.588;5.186;2022-12-24T20:21:43;25.50;;;23.25;;
76758;SDS011;65701;45.588;5.186;2022-12-24T20:24:09;23.50;;;22.75;;
76758;SDS011;65701;45.588;5.186;2022-12-24T20:26:35;27.25;;;24.75;;
76758;SDS011;65701;45.588;5.186;2022-12-24T20:29:04;28.75;;;25.50;;
76758;SDS011;65701;45.588;5.186;2022-12-24T20:31:31;28.25;;;23.00;;
76758;SDS011;65701;45.588;5.186;2022-12-24T20:33:58;32.75;;;23.25;;
76758;SDS011;65701;45.588;5.186;2022-12-24T20:36:27;29.00;;;27.75;;
76758;SDS011;65701;45.588;5.186;2022-12-24T20:38:54;27.50;;;25.50;;
76758;SDS011;65701;45.588;5.186;2022-12-24T20:41:21;27.25;;;25.50;;
76758;SDS011;65701;45.588;5.186;2022-12-24T20:43:50;25.00;;;22.25;;
76758;SDS011;65701;45.588;5.186;2022-12-24T20:46:16;31.50;;;25.50;;
76758;SDS011;65701;45.588;5.186;2022-12-24T20:48:44;22.25;;;21.00;;
76758;SDS011;65701;45.588;5.186;2022-12-24T20:51:14;24.25;;;21.50;;
76758;SDS011;65701;45.588;5.186;2022-12-24T20:53:41;22.00;;;20.75;;
76758;SDS011;65701;45.588;5.186;2022-12-24T20:56:10;25.50;;;23.50;;
76758;SDS011;65701;45.588;5.186;2022-12-24T20:58:37;24.75;;;22.75;;
76758;SDS011;65701;45.588;5.186;2022-12-24T21:01:10;18.50;;;16.75;;
76758;SDS011;65701;45.588;5.186;2022-12-24T21:03:36;29.00;;;22.50;;
76758;SDS011;65701;45.588;5.186;2022-12-24T21:06:02;22.25;;;19.25;;
76758;SDS011;65701;45.588;5.186;2022-12-24T21:08:28;27.00;;;20.25;;
76758;SDS011;65701;45.588;5.186;2022-12-24T21:10:54;20.50;;;20.00;;
76758;SDS011;65701;45.588;5.186;2022-12-24T21:13:40;22.25;;;19.25;;
76758;SDS011;65701;45.588;5.186;2022-12-24T21:16:06;29.25;;;28.75;;
76758;SDS011;65701;45.588;5.186;2022-12-24T21:18:32;27.25;;;26.50;;
76758;SDS011;65701;45.588;5.186;2022-12-24T21:20:58;29.00;;;24.50;;
76758;SDS011;65701;45.588;5.186;2022-12-24T21:23:23;24.75;;;22.75;;
76758;SDS011;65701;45.588;5.186;2022-12-24T21:25:58;39.00;;;36.00;;
76758;SDS011;65701;45.588;5.186;2022-12-24T21:28:25;25.75;;;24.50;;
76758;SDS011;65701;45.588;5.186;2022-12-24T21:30:51;32.00;;;26.25;;
76758;SDS011;65701;45.588;5.186;2022-12-24T21:33:16;24.75;;;22.00;;
76758;SDS011;65701;45.588;5.186;2022-12-24T21:35:42;31.75;;;31.50;;
76758;SDS011;65701;45.588;5.186;2022-12-24T21:38:07;27.50;;;26.25;;
76758;SDS011;65701;45.588;5.186;2022-12-24T21:40:33;26.50;;;24.00;;
76758;SDS011;65701;45.588;5.186;2022-12-24T21:42:58;28.50;;;24.00;;
76758;SDS011;65701;45.588;5.186;2022-12-24T21:45:23;28.75;;;23.75;;
76758;SDS011;65701;45.588;5.186;2022-12-24T21:47:49;33.00;;;27.25;;
76758;SDS011;65701;45.588;5.186;2022-12-24T21:50:14;21.50;;;19.25;;
